METAR Data
IDs: Format: Raw Decoded Include TAF

Data at: 0118 UTC 12 May 2021

KBMG 120053Z 02006KT 10SM CLR 11/01 A3030 RMK AO2 SLP261 T01060006
KBMG 112353Z 01007KT 10SM CLR 13/M01 A3027 RMK AO2 SLP250 T01281006 10161 20128 53004
KBMG 112253Z 03009KT 10SM CLR 13/M01 A3026 RMK AO2 SLP247 T01331011
KBMG 112153Z 03011KT 10SM CLR 14/M01 A3024 RMK AO2 SLP242 T01441006
KBMG 112053Z 34007G16KT 10SM CLR 15/M01 A3025 RMK AO2 SLP245 T01501006 55007
KBMG 111953Z COR 030/08/1510SM CLR 15/M01 A3024 RMK AO2 SLP242 T01501006
KBMG 111853Z 05008G18KT 10SM CLR 14/M01 A3026 RMK AO2 SLP247 T01391006
KBMG 111753Z 03010G17KT 10SM CLR 14/M01 A3028 RMK AO2 SLP253 T01441006 10156 20083 58003
KBMG 111653Z 06007KT 10SM CLR 14/00 A3029 RMK AO2 SLP257 T01390000
KBMG 111553Z 05010G20KT 10SM CLR 13/M01 A3028 RMK AO2 SLP253 T01331011
KBMG 111453Z 03009KT 10SM BKN050 12/00 A3029 RMK AO2 SLP256 T01170000 51017
KBMG 111353Z 05006KT 10SM OVC048 10/03 A3027 RMK AO2 SLP250 T01000028
KBMG 111253Z 04010G17KT 10SM FEW050 09/03 A3025 RMK AO2 SLP245 T00940033
KBMG 111153Z 02005KT 8SM FEW006 OVC060 08/07 A3023 RMK AO2 SLP239 T00830067 10083 20050 53016
KBMG 111053Z 00000KT 8SM FEW060 07/06 A3021 RMK AO2 SLP229 T00720056
KBMG 110953Z AUTO 00000KT 7SM BKN060 06/05 A3020 RMK AO2 SLP228 T00610050
KBMG 110853Z AUTO 00000KT 10SM CLR 07/05 A3019 RMK AO2 SLP221 T00670050 53006
KBMG 110753Z AUTO 35005KT 10SM CLR 06/04 A3017 RMK AO2 SLP216 T00560039
KBMG 110653Z AUTO 00000KT 10SM CLR 06/04 A3016 RMK AO2 SLP215 T00560039
KBMG 110553Z AUTO 34004KT 10SM CLR 06/04 A3017 RMK AO2 SLP216 T00610044 10139 20061 53004
KBMG 110453Z AUTO 00000KT 10SM CLR 07/05 A3015 RMK AO2 SLP211 T00720050 401720011
KBMG 110353Z AUTO 00000KT 10SM CLR 08/06 A3015 RMK AO2 SLP210 T00830061
KBMG 110253Z AUTO 00000KT 10SM CLR 10/07 A3015 RMK AO2 SLP211 T01000067 53013
KBMG 110153Z AUTO 00000KT 10SM CLR 11/06 A3014 RMK AO2 SLP208 T01060061
KBMG 110053Z 00000KT 10SM CLR 12/07 A3012 RMK AO2 SLP198 T01220072
KBMG 102353Z 36003KT 10SM CLR 14/05 A3012 RMK AO2 SLP199 T01390050 10172 20139 55002
KBMG 102253Z 03003KT 10SM CLR 15/04 A3010 RMK AO2 SLP195 T01500039
KBMG 102153Z 35004KT 10SM CLR 16/03 A3012 RMK AO2 SLP200 T01560028
KBMG 102053Z VRB04KT 10SM FEW055 16/03 A3012 RMK AO2 SLP201 T01610028 57005
KBMG 101953Z VRB04KT 10SM CLR 16/03 A3013 RMK AO2 SLP204 T01610028
KBMG 101853Z VRB04KT 10SM SCT055 16/03 A3013 RMK AO2 SLP203 T01610028
KBMG 101753Z VRB03KT 10SM CLR 16/02 A3014 RMK AO2 SLP206 T01560022 10161 20044 55002
KBMG 101653Z 09004KT 10SM CLR 14/02 A3013 RMK AO2 SLP204 T01440022
KBMG 101553Z 07003KT 10SM CLR 13/03 A3015 RMK AO2 SLP209 T01280028
KBMG 101453Z 01005KT 10SM CLR 12/03 A3014 RMK AO2 SLP208 T01170033 51010
KBMG 101353Z 36003KT 10SM CLR 10/04 A3014 RMK AO2 SLP207 T01000039